sensor_id;sensor_type;location;lat;lon;timestamp;temperature;humidity
45729;DHT22;31439;53.512;10.206;2023-05-07T00:01:25;9.90;99.90
45729;DHT22;31439;53.512;10.206;2023-05-07T00:03:51;9.90;99.90
45729;DHT22;31439;53.512;10.206;2023-05-07T00:06:17;9.90;99.90
45729;DHT22;31439;53.512;10.206;2023-05-07T00:08:42;9.90;99.90
45729;DHT22;31439;53.512;10.206;2023-05-07T00:11:08;9.90;99.90
45729;DHT22;31439;53.512;10.206;2023-05-07T00:13:34;10.00;99.90
45729;DHT22;31439;53.512;10.206;2023-05-07T00:16:02;10.00;99.90
45729;DHT22;31439;53.512;10.206;2023-05-07T00:18:27;10.00;99.90
45729;DHT22;31439;53.512;10.206;2023-05-07T00:20:53;10.00;99.90
45729;DHT22;31439;53.512;10.206;2023-05-07T00:23:19;9.90;99.90
45729;DHT22;31439;53.512;10.206;2023-05-07T00:25:45;9.90;99.90
45729;DHT22;31439;53.512;10.206;2023-05-07T00:28:10;9.90;99.90
45729;DHT22;31439;53.512;10.206;2023-05-07T00:30:36;9.90;99.90
45729;DHT22;31439;53.512;10.206;2023-05-07T00:33:02;9.90;99.90
45729;DHT22;31439;53.512;10.206;2023-05-07T00:35:29;9.90;99.90
45729;DHT22;31439;53.512;10.206;2023-05-07T00:37:55;9.90;99.90
45729;DHT22;31439;53.512;10.206;2023-05-07T00:40:21;10.00;99.90
45729;DHT22;31439;53.512;10.206;2023-05-07T00:42:47;10.00;99.90
45729;DHT22;31439;53.512;10.206;2023-05-07T00:45:14;9.90;99.90
45729;DHT22;31439;53.512;10.206;2023-05-07T00:47:41;9.90;99.90
45729;DHT22;31439;53.512;10.206;2023-05-07T00:50:08;9.90;99.90
45729;DHT22;31439;53.512;10.206;2023-05-07T00:52:35;10.00;99.90
45729;DHT22;31439;53.512;10.206;2023-05-07T00:55:05;9.90;99.90
45729;DHT22;31439;53.512;10.206;2023-05-07T00:57:40;9.90;99.90
45729;DHT22;31439;53.512;10.206;2023-05-07T01:00:07;9.90;99.90
45729;DHT22;31439;53.512;10.206;2023-05-07T01:02:35;10.00;99.90
45729;DHT22;31439;53.512;10.206;2023-05-07T01:05:01;10.00;99.90
45729;DHT22;31439;53.512;10.206;2023-05-07T01:07:29;10.00;99.90
45729;DHT22;31439;53.512;10.206;2023-05-07T01:09:55;10.00;99.90
45729;DHT22;31439;53.512;10.206;2023-05-07T01:12:21;10.00;99.90
45729;DHT22;31439;53.512;10.206;2023-05-07T01:14:47;10.00;99.90
45729;DHT22;31439;53.512;10.206;2023-05-07T01:17:15;9.90;99.90
45729;DHT22;31439;53.512;10.206;2023-05-07T01:19:41;9.90;99.90
45729;DHT22;31439;53.512;10.206;2023-05-07T01:22:08;9.90;99.90
45729;DHT22;31439;53.512;10.206;2023-05-07T01:24:36;9.90;99.90
45729;DHT22;31439;53.512;10.206;2023-05-07T01:27:02;9.90;99.90
45729;DHT22;31439;53.512;10.206;2023-05-07T01:29:28;10.00;99.90
45729;DHT22;31439;53.512;10.206;2023-05-07T01:31:56;10.00;99.90
45729;DHT22;31439;53.512;10.206;2023-05-07T01:34:22;10.00;99.90
45729;DHT22;31439;53.512;10.206;2023-05-07T01:36:50;10.00;99.90
45729;DHT22;31439;53.512;10.206;2023-05-07T01:39:16;10.00;99.90
45729;DHT22;31439;53.512;10.206;2023-05-07T01:41:43;10.00;99.90
45729;DHT22;31439;53.512;10.206;2023-05-07T01:44:10;10.00;99.90
45729;DHT22;31439;53.512;10.206;2023-05-07T01:46:37;10.00;99.90
45729;DHT22;31439;53.512;10.206;2023-05-07T01:49:03;10.10;99.90
45729;DHT22;31439;53.512;10.206;2023-05-07T01:51:29;10.10;99.90
45729;DHT22;31439;53.512;10.206;2023-05-07T01:53:55;10.00;99.90
45729;DHT22;31439;53.512;10.206;2023-05-07T01:56:21;9.90;99.90
45729;DHT22;31439;53.512;10.206;2023-05-07T01:58:47;9.90;99.90
45729;DHT22;31439;53.512;10.206;2023-05-07T02:01:13;10.00;99.90
45729;DHT22;31439;53.512;10.206;2023-05-07T02:03:39;10.00;99.90
45729;DHT22;31439;53.512;10.206;2023-05-07T02:06:05;10.00;99.90
45729;DHT22;31439;53.512;10.206;2023-05-07T02:08:31;10.00;99.90
45729;DHT22;31439;53.512;10.206;2023-05-07T02:10:56;9.90;99.90
45729;DHT22;31439;53.512;10.206;2023-05-07T02:13:22;9.90;99.90
45729;DHT22;31439;53.512;10.206;2023-05-07T02:15:49;10.00;99.90
45729;DHT22;31439;53.512;10.206;2023-05-07T02:18:16;9.90;99.90
45729;DHT22;31439;53.512;10.206;2023-05-07T02:20:42;9.90;99.90
45729;DHT22;31439;53.512;10.206;2023-05-07T02:23:08;9.90;99.90
45729;DHT22;31439;53.512;10.206;2023-05-07T02:25:34;9.90;99.90
45729;DHT22;31439;53.512;10.206;2023-05-07T02:27:59;9.80;99.90
45729;DHT22;31439;53.512;10.206;2023-05-07T02:30:25;9.80;99.90
45729;DHT22;31439;53.512;10.206;2023-05-07T02:32:51;9.90;99.90
45729;DHT22;31439;53.512;10.206;2023-05-07T02:35:17;9.80;99.90
45729;DHT22;31439;53.512;10.206;2023-05-07T02:37:43;9.80;99.90
45729;DHT22;31439;53.512;10.206;2023-05-07T02:40:09;9.80;99.90
45729;DHT22;31439;53.512;10.206;2023-05-07T02:42:35;9.90;99.90
45729;DHT22;31439;53.512;10.206;2023-05-07T02:45:01;9.90;99.90
45729;DHT22;31439;53.512;10.206;2023-05-07T02:47:26;9.80;99.90
45729;DHT22;31439;53.512;10.206;2023-05-07T02:49:54;9.80;99.90
45729;DHT22;31439;53.512;10.206;2023-05-07T02:52:20;9.80;99.90
45729;DHT22;31439;53.512;10.206;2023-05-07T02:54:46;9.80;99.90
45729;DHT22;31439;53.512;10.206;2023-05-07T02:57:11;9.80;99.90
45729;DHT22;31439;53.512;10.206;2023-05-07T02:59:37;9.70;99.90
45729;DHT22;31439;53.512;10.206;2023-05-07T03:02:03;9.70;99.90
45729;DHT22;31439;53.512;10.206;2023-05-07T03:04:28;9.70;99.90
45729;DHT22;31439;53.512;10.206;2023-05-07T03:06:54;9.70;99.90
45729;DHT22;31439;53.512;10.206;2023-05-07T03:09:20;9.70;99.90
45729;DHT22;31439;53.512;10.206;2023-05-07T03:11:46;9.80;99.90
45729;DHT22;31439;53.512;10.206;2023-05-07T03:14:11;9.80;99.90
45729;DHT22;31439;53.512;10.206;2023-05-07T03:16:37;9.80;99.90
45729;DHT22;31439;53.512;10.206;2023-05-07T03:19:03;9.80;99.90
45729;DHT22;31439;53.512;10.206;2023-05-07T03:21:29;9.80;99.90
45729;DHT22;31439;53.512;10.206;2023-05-07T03:23:55;9.80;99.90
45729;DHT22;31439;53.512;10.206;2023-05-07T03:26:21;9.80;99.90
45729;DHT22;31439;53.512;10.206;2023-05-07T03:28:47;9.80;99.90
45729;DHT22;31439;53.512;10.206;2023-05-07T03:31:13;9.90;99.90
45729;DHT22;31439;53.512;10.206;2023-05-07T03:33:52;9.90;99.90
45729;DHT22;31439;53.512;10.206;2023-05-07T03:36:18;9.90;99.90
45729;DHT22;31439;53.512;10.206;2023-05-07T03:38:44;9.90;99.90
45729;DHT22;31439;53.512;10.206;2023-05-07T03:41:09;9.90;99.90
45729;DHT22;31439;53.512;10.206;2023-05-07T03:43:35;9.90;99.90
45729;DHT22;31439;53.512;10.206;2023-05-07T03:46:01;9.90;99.90
45729;DHT22;31439;53.512;10.206;2023-05-07T03:48:26;9.90;99.90
45729;DHT22;31439;53.512;10.206;2023-05-07T03:50:52;9.90;99.90
45729;DHT22;31439;53.512;10.206;2023-05-07T03:53:18;9.90;99.90
45729;DHT22;31439;53.512;10.206;2023-05-07T03:55:44;10.00;99.90
45729;DHT22;31439;53.512;10.206;2023-05-07T03:58:09;10.00;99.90
45729;DHT22;31439;53.512;10.206;2023-05-07T04:00:35;10.00;99.90
45729;DHT22;31439;53.512;10.206;2023-05-07T04:03:04;9.90;99.90
45729;DHT22;31439;53.512;10.206;2023-05-07T04:05:30;10.00;99.90
45729;DHT22;31439;53.512;10.206;2023-05-07T04:07:58;9.90;99.90
45729;DHT22;31439;53.512;10.206;2023-05-07T04:10:24;9.80;99.90
45729;DHT22;31439;53.512;10.206;2023-05-07T04:12:49;9.80;99.90
45729;DHT22;31439;53.512;10.206;2023-05-07T04:15:15;9.80;99.90
45729;DHT22;31439;53.512;10.206;2023-05-07T04:17:41;9.90;99.90
45729;DHT22;31439;53.512;10.206;2023-05-07T04:20:09;9.80;99.90
45729;DHT22;31439;53.512;10.206;2023-05-07T04:22:36;9.90;99.90
45729;DHT22;31439;53.512;10.206;2023-05-07T04:25:02;9.90;99.90
45729;DHT22;31439;53.512;10.206;2023-05-07T04:27:28;9.90;99.90
45729;DHT22;31439;53.512;10.206;2023-05-07T04:29:53;9.90;99.90
45729;DHT22;31439;53.512;10.206;2023-05-07T04:32:21;9.80;99.90
45729;DHT22;31439;53.512;10.206;2023-05-07T04:34:47;9.70;99.90
45729;DHT22;31439;53.512;10.206;2023-05-07T04:37:13;9.80;99.90
45729;DHT22;31439;53.512;10.206;2023-05-07T04:39:39;9.80;99.90
45729;DHT22;31439;53.512;10.206;2023-05-07T04:42:04;9.80;99.90
45729;DHT22;31439;53.512;10.206;2023-05-07T04:44:32;9.80;99.90
45729;DHT22;31439;53.512;10.206;2023-05-07T04:46:59;9.80;99.90
45729;DHT22;31439;53.512;10.206;2023-05-07T04:49:25;9.90;99.90
45729;DHT22;31439;53.512;10.206;2023-05-07T04:51:51;9.90;99.90
45729;DHT22;31439;53.512;10.206;2023-05-07T04:54:16;10.00;99.90
45729;DHT22;31439;53.512;10.206;2023-05-07T04:56:42;10.00;99.90
45729;DHT22;31439;53.512;10.206;2023-05-07T04:59:08;10.00;99.90
45729;DHT22;31439;53.512;10.206;2023-05-07T05:01:33;10.00;99.90
45729;DHT22;31439;53.512;10.206;2023-05-07T05:03:59;10.00;99.90
45729;DHT22;31439;53.512;10.206;2023-05-07T05:06:25;10.00;99.90
45729;DHT22;31439;53.512;10.206;2023-05-07T05:08:51;10.10;99.90
45729;DHT22;31439;53.512;10.206;2023-05-07T05:11:17;10.10;99.90
45729;DHT22;31439;53.512;10.206;2023-05-07T05:13:42;10.00;99.90
45729;DHT22;31439;53.512;10.206;2023-05-07T05:16:08;10.00;99.90
45729;DHT22;31439;53.512;10.206;2023-05-07T05:18:34;10.10;99.90
45729;DHT22;31439;53.512;10.206;2023-05-07T05:21:00;10.10;99.90
45729;DHT22;31439;53.512;10.206;2023-05-07T05:23:26;10.10;99.90
45729;DHT22;31439;53.512;10.206;2023-05-07T05:25:56;10.10;99.90
45729;DHT22;31439;53.512;10.206;2023-05-07T05:28:23;10.20;99.90
45729;DHT22;31439;53.512;10.206;2023-05-07T05:30:49;10.20;99.90
45729;DHT22;31439;53.512;10.206;2023-05-07T05:33:15;10.20;99.90
45729;DHT22;31439;53.512;10.206;2023-05-07T05:35:41;10.20;99.90
45729;DHT22;31439;53.512;10.206;2023-05-07T05:38:07;10.20;99.90
45729;DHT22;31439;53.512;10.206;2023-05-07T05:40:33;10.20;99.90
45729;DHT22;31439;53.512;10.206;2023-05-07T05:42:59;10.30;99.90
45729;DHT22;31439;53.512;10.206;2023-05-07T05:45:24;10.30;99.90
45729;DHT22;31439;53.512;10.206;2023-05-07T05:47:50;10.30;99.90
45729;DHT22;31439;53.512;10.206;2023-05-07T05:50:16;10.20;99.90
45729;DHT22;31439;53.512;10.206;2023-05-07T05:52:41;10.30;99.90
45729;DHT22;31439;53.512;10.206;2023-05-07T05:55:08;10.30;99.90
45729;DHT22;31439;53.512;10.206;2023-05-07T05:57:34;10.30;99.90
45729;DHT22;31439;53.512;10.206;2023-05-07T06:00:00;10.30;99.90
45729;DHT22;31439;53.512;10.206;2023-05-07T06:02:26;10.30;99.90
45729;DHT22;31439;53.512;10.206;2023-05-07T06:04:52;10.30;99.90
45729;DHT22;31439;53.512;10.206;2023-05-07T06:07:17;10.30;99.90
45729;DHT22;31439;53.512;10.206;2023-05-07T06:09:43;10.30;99.90
45729;DHT22;31439;53.512;10.206;2023-05-07T06:12:09;10.40;99.90
45729;DHT22;31439;53.512;10.206;2023-05-07T06:14:35;10.30;99.90
45729;DHT22;31439;53.512;10.206;2023-05-07T06:17:00;10.30;99.90
45729;DHT22;31439;53.512;10.206;2023-05-07T06:19:26;10.40;99.90
45729;DHT22;31439;53.512;10.206;2023-05-07T06:21:53;10.40;99.90
45729;DHT22;31439;53.512;10.206;2023-05-07T06:24:19;10.40;99.90
45729;DHT22;31439;53.512;10.206;2023-05-07T06:26:44;10.30;99.90
45729;DHT22;31439;53.512;10.206;2023-05-07T06:29:10;10.30;99.90
45729;DHT22;31439;53.512;10.206;2023-05-07T06:31:36;10.30;99.90
45729;DHT22;31439;53.512;10.206;2023-05-07T06:34:02;10.30;99.90
45729;DHT22;31439;53.512;10.206;2023-05-07T06:36:28;10.30;99.90
45729;DHT22;31439;53.512;10.206;2023-05-07T06:38:54;10.40;99.90
45729;DHT22;31439;53.512;10.206;2023-05-07T06:41:20;10.40;99.90
45729;DHT22;31439;53.512;10.206;2023-05-07T06:43:46;10.50;99.90
45729;DHT22;31439;53.512;10.206;2023-05-07T06:46:11;10.40;99.90
45729;DHT22;31439;53.512;10.206;2023-05-07T06:48:37;10.50;99.90
45729;DHT22;31439;53.512;10.206;2023-05-07T06:51:03;10.50;99.90
45729;DHT22;31439;53.512;10.206;2023-05-07T06:53:28;10.50;99.90
45729;DHT22;31439;53.512;10.206;2023-05-07T06:55:56;10.50;99.90
45729;DHT22;31439;53.512;10.206;2023-05-07T06:58:22;10.60;99.90
45729;DHT22;31439;53.512;10.206;2023-05-07T07:00:47;10.60;99.90
45729;DHT22;31439;53.512;10.206;2023-05-07T07:03:13;10.60;99.90
45729;DHT22;31439;53.512;10.206;2023-05-07T07:05:41;10.50;99.90
45729;DHT22;31439;53.512;10.206;2023-05-07T07:08:06;10.60;99.90
45729;DHT22;31439;53.512;10.206;2023-05-07T07:10:32;10.50;99.90
45729;DHT22;31439;53.512;10.206;2023-05-07T07:12:57;10.40;99.90
45729;DHT22;31439;53.512;10.206;2023-05-07T07:15:24;10.50;99.90
45729;DHT22;31439;53.512;10.206;2023-05-07T07:17:51;10.50;99.90
45729;DHT22;31439;53.512;10.206;2023-05-07T07:20:16;10.60;99.90
45729;DHT22;31439;53.512;10.206;2023-05-07T07:22:42;10.60;99.90
45729;DHT22;31439;53.512;10.206;2023-05-07T07:25:08;10.60;99.90
45729;DHT22;31439;53.512;10.206;2023-05-07T07:27:34;10.70;99.90
45729;DHT22;31439;53.512;10.206;2023-05-07T07:30:00;10.70;99.90
45729;DHT22;31439;53.512;10.206;2023-05-07T07:32:25;10.70;99.90
45729;DHT22;31439;53.512;10.206;2023-05-07T07:34:51;10.80;99.90
45729;DHT22;31439;53.512;10.206;2023-05-07T07:37:17;10.80;99.90
45729;DHT22;31439;53.512;10.206;2023-05-07T07:39:43;10.80;99.90
45729;DHT22;31439;53.512;10.206;2023-05-07T07:42:08;10.90;99.90
45729;DHT22;31439;53.512;10.206;2023-05-07T07:44:34;10.90;99.90
45729;DHT22;31439;53.512;10.206;2023-05-07T07:47:00;10.90;99.90
45729;DHT22;31439;53.512;10.206;2023-05-07T07:49:26;11.30;99.90
45729;DHT22;31439;53.512;10.206;2023-05-07T07:51:52;11.90;99.90
45729;DHT22;31439;53.512;10.206;2023-05-07T07:54:17;12.50;99.90
45729;DHT22;31439;53.512;10.206;2023-05-07T07:56:43;13.00;99.90
45729;DHT22;31439;53.512;10.206;2023-05-07T07:59:09;13.20;99.90
45729;DHT22;31439;53.512;10.206;2023-05-07T08:01:34;12.70;99.90
45729;DHT22;31439;53.512;10.206;2023-05-07T08:04:00;12.20;99.90
45729;DHT22;31439;53.512;10.206;2023-05-07T08:06:28;11.90;99.90
45729;DHT22;31439;53.512;10.206;2023-05-07T08:08:54;11.70;99.90
45729;DHT22;31439;53.512;10.206;2023-05-07T08:11:20;11.60;99.90
45729;DHT22;31439;53.512;10.206;2023-05-07T08:13:47;11.60;99.90
45729;DHT22;31439;53.512;10.206;2023-05-07T08:16:13;11.50;99.90
45729;DHT22;31439;53.512;10.206;2023-05-07T08:18:39;11.50;99.90
45729;DHT22;31439;53.512;10.206;2023-05-07T08:21:04;11.40;99.90
45729;DHT22;31439;53.512;10.206;2023-05-07T08:23:30;11.40;99.90
45729;DHT22;31439;53.512;10.206;2023-05-07T08:25:56;11.40;99.90
45729;DHT22;31439;53.512;10.206;2023-05-07T08:28:22;11.40;99.90
45729;DHT22;31439;53.512;10.206;2023-05-07T08:30:47;11.20;99.90
45729;DHT22;31439;53.512;10.206;2023-05-07T08:33:13;11.30;99.90
45729;DHT22;31439;53.512;10.206;2023-05-07T08:35:39;11.40;99.90
45729;DHT22;31439;53.512;10.206;2023-05-07T08:38:04;11.40;99.90
45729;DHT22;31439;53.512;10.206;2023-05-07T08:40:37;11.30;99.90
45729;DHT22;31439;53.512;10.206;2023-05-07T08:43:07;11.40;99.90
45729;DHT22;31439;53.512;10.206;2023-05-07T08:45:34;11.40;99.90
45729;DHT22;31439;53.512;10.206;2023-05-07T08:48:02;11.40;99.90
45729;DHT22;31439;53.512;10.206;2023-05-07T08:50:29;11.40;99.90
45729;DHT22;31439;53.512;10.206;2023-05-07T08:52:55;11.40;99.90
45729;DHT22;31439;53.512;10.206;2023-05-07T08:55:22;11.50;99.90
45729;DHT22;31439;53.512;10.206;2023-05-07T08:57:49;11.50;99.90
45729;DHT22;31439;53.512;10.206;2023-05-07T09:00:15;11.50;99.90
45729;DHT22;31439;53.512;10.206;2023-05-07T09:02:41;11.50;99.90
45729;DHT22;31439;53.512;10.206;2023-05-07T09:05:07;11.50;99.90
45729;DHT22;31439;53.512;10.206;2023-05-07T09:07:33;11.60;99.90
45729;DHT22;31439;53.512;10.206;2023-05-07T09:10:04;11.60;99.90
45729;DHT22;31439;53.512;10.206;2023-05-07T09:12:30;11.50;99.90
45729;DHT22;31439;53.512;10.206;2023-05-07T09:14:56;11.60;99.90
45729;DHT22;31439;53.512;10.206;2023-05-07T09:17:22;11.60;99.90
45729;DHT22;31439;53.512;10.206;2023-05-07T09:19:48;11.60;99.90
45729;DHT22;31439;53.512;10.206;2023-05-07T09:22:14;11.60;99.90
45729;DHT22;31439;53.512;10.206;2023-05-07T09:24:40;11.60;99.90
45729;DHT22;31439;53.512;10.206;2023-05-07T09:27:06;11.70;99.90
45729;DHT22;31439;53.512;10.206;2023-05-07T09:29:33;11.80;99.90
45729;DHT22;31439;53.512;10.206;2023-05-07T09:32:04;11.70;99.90
45729;DHT22;31439;53.512;10.206;2023-05-07T09:34:30;11.80;99.90
45729;DHT22;31439;53.512;10.206;2023-05-07T09:36:58;11.90;99.90
45729;DHT22;31439;53.512;10.206;2023-05-07T09:39:24;11.80;99.90
45729;DHT22;31439;53.512;10.206;2023-05-07T09:41:50;11.80;99.90
45729;DHT22;31439;53.512;10.206;2023-05-07T09:44:20;11.80;99.90
45729;DHT22;31439;53.512;10.206;2023-05-07T09:46:47;11.80;99.90
45729;DHT22;31439;53.512;10.206;2023-05-07T09:49:23;11.80;99.90
45729;DHT22;31439;53.512;10.206;2023-05-07T09:51:51;11.80;99.90
45729;DHT22;31439;53.512;10.206;2023-05-07T09:54:18;11.90;99.90
45729;DHT22;31439;53.512;10.206;2023-05-07T09:56:45;11.90;99.90
45729;DHT22;31439;53.512;10.206;2023-05-07T09:59:13;11.90;99.90
45729;DHT22;31439;53.512;10.206;2023-05-07T10:01:43;12.00;99.90
45729;DHT22;31439;53.512;10.206;2023-05-07T10:04:10;12.00;99.90
45729;DHT22;31439;53.512;10.206;2023-05-07T10:06:37;12.10;99.90
45729;DHT22;31439;53.512;10.206;2023-05-07T10:09:03;12.10;99.90
45729;DHT22;31439;53.512;10.206;2023-05-07T10:11:34;12.20;99.90
45729;DHT22;31439;53.512;10.206;2023-05-07T10:14:02;12.20;99.90
45729;DHT22;31439;53.512;10.206;2023-05-07T10:16:32;12.30;99.90
45729;DHT22;31439;53.512;10.206;2023-05-07T10:19:06;12.40;99.90
45729;DHT22;31439;53.512;10.206;2023-05-07T10:21:42;12.40;99.90
45729;DHT22;31439;53.512;10.206;2023-05-07T10:26:47;12.50;99.90
45729;DHT22;31439;53.512;10.206;2023-05-07T10:32:24;12.60;99.90
45729;DHT22;31439;53.512;10.206;2023-05-07T10:34:56;12.50;99.90
45729;DHT22;31439;53.512;10.206;2023-05-07T10:37:24;12.60;99.90
45729;DHT22;31439;53.512;10.206;2023-05-07T10:39:50;12.80;99.90
45729;DHT22;31439;53.512;10.206;2023-05-07T10:42:16;12.90;99.90
45729;DHT22;31439;53.512;10.206;2023-05-07T10:44:42;12.80;99.90
45729;DHT22;31439;53.512;10.206;2023-05-07T10:47:10;12.80;99.90
45729;DHT22;31439;53.512;10.206;2023-05-07T10:52:30;12.80;99.90
45729;DHT22;31439;53.512;10.206;2023-05-07T10:57:40;13.10;99.90
45729;DHT22;31439;53.512;10.206;2023-05-07T11:05:30;13.50;99.90
45729;DHT22;31439;53.512;10.206;2023-05-07T11:07:57;13.70;99.90
45729;DHT22;31439;53.512;10.206;2023-05-07T11:10:23;13.80;99.90
45729;DHT22;31439;53.512;10.206;2023-05-07T11:12:49;13.80;99.90
45729;DHT22;31439;53.512;10.206;2023-05-07T11:15:33;13.80;99.90
45729;DHT22;31439;53.512;10.206;2023-05-07T11:18:00;13.80;99.90
45729;DHT22;31439;53.512;10.206;2023-05-07T11:20:54;13.90;99.90
45729;DHT22;31439;53.512;10.206;2023-05-07T11:26:10;14.20;99.90
45729;DHT22;31439;53.512;10.206;2023-05-07T11:28:41;14.20;99.90
45729;DHT22;31439;53.512;10.206;2023-05-07T11:31:08;14.20;99.90
45729;DHT22;31439;53.512;10.206;2023-05-07T11:33:34;14.10;99.90
45729;DHT22;31439;53.512;10.206;2023-05-07T11:36:02;14.10;99.90
45729;DHT22;31439;53.512;10.206;2023-05-07T11:38:29;14.20;99.90
45729;DHT22;31439;53.512;10.206;2023-05-07T11:40:59;14.30;99.90
45729;DHT22;31439;53.512;10.206;2023-05-07T11:43:30;14.40;99.90
45729;DHT22;31439;53.512;10.206;2023-05-07T11:46:13;14.60;99.90
45729;DHT22;31439;53.512;10.206;2023-05-07T11:48:39;14.70;99.90
45729;DHT22;31439;53.512;10.206;2023-05-07T11:51:07;14.60;99.90
45729;DHT22;31439;53.512;10.206;2023-05-07T11:53:42;14.80;99.90
45729;DHT22;31439;53.512;10.206;2023-05-07T11:56:13;14.80;99.90
45729;DHT22;31439;53.512;10.206;2023-05-07T11:58:40;14.80;99.90
45729;DHT22;31439;53.512;10.206;2023-05-07T12:01:08;14.80;99.90
45729;DHT22;31439;53.512;10.206;2023-05-07T12:03:39;14.80;99.90
45729;DHT22;31439;53.512;10.206;2023-05-07T12:06:08;15.00;99.90
45729;DHT22;31439;53.512;10.206;2023-05-07T12:08:36;14.90;99.90
45729;DHT22;31439;53.512;10.206;2023-05-07T12:11:03;15.00;99.90
45729;DHT22;31439;53.512;10.206;2023-05-07T12:13:32;15.00;99.90
45729;DHT22;31439;53.512;10.206;2023-05-07T12:15:58;15.00;99.90
45729;DHT22;31439;53.512;10.206;2023-05-07T12:18:24;15.20;99.90
45729;DHT22;31439;53.512;10.206;2023-05-07T12:20:50;15.30;99.90
45729;DHT22;31439;53.512;10.206;2023-05-07T12:23:16;15.40;99.90
45729;DHT22;31439;53.512;10.206;2023-05-07T12:25:43;15.40;99.90
45729;DHT22;31439;53.512;10.206;2023-05-07T12:28:16;15.40;99.90
45729;DHT22;31439;53.512;10.206;2023-05-07T12:30:43;15.20;99.90
45729;DHT22;31439;53.512;10.206;2023-05-07T12:33:09;15.10;99.90
45729;DHT22;31439;53.512;10.206;2023-05-07T12:35:42;15.10;99.90
45729;DHT22;31439;53.512;10.206;2023-05-07T12:38:13;15.10;99.90
45729;DHT22;31439;53.512;10.206;2023-05-07T12:40:49;15.10;99.90
45729;DHT22;31439;53.512;10.206;2023-05-07T12:43:21;15.20;99.90
45729;DHT22;31439;53.512;10.206;2023-05-07T12:45:49;15.30;99.90
45729;DHT22;31439;53.512;10.206;2023-05-07T12:48:15;15.30;99.90
45729;DHT22;31439;53.512;10.206;2023-05-07T12:50:41;15.40;99.90
45729;DHT22;31439;53.512;10.206;2023-05-07T12:53:07;15.50;99.90
45729;DHT22;31439;53.512;10.206;2023-05-07T12:55:44;15.60;99.90
45729;DHT22;31439;53.512;10.206;2023-05-07T12:58:32;15.70;99.90
45729;DHT22;31439;53.512;10.206;2023-05-07T13:01:00;15.80;99.90
45729;DHT22;31439;53.512;10.206;2023-05-07T13:03:31;15.80;99.90
45729;DHT22;31439;53.512;10.206;2023-05-07T13:06:06;15.80;99.90
45729;DHT22;31439;53.512;10.206;2023-05-07T13:08:34;15.80;99.90
45729;DHT22;31439;53.512;10.206;2023-05-07T13:11:03;15.80;99.90
45729;DHT22;31439;53.512;10.206;2023-05-07T13:13:31;15.80;99.90
45729;DHT22;31439;53.512;10.206;2023-05-07T13:15:56;15.80;99.90
45729;DHT22;31439;53.512;10.206;2023-05-07T13:18:23;15.70;99.90
45729;DHT22;31439;53.512;10.206;2023-05-07T13:20:49;15.60;99.90
45729;DHT22;31439;53.512;10.206;2023-05-07T13:23:14;15.60;99.90
45729;DHT22;31439;53.512;10.206;2023-05-07T13:25:40;15.80;99.90
45729;DHT22;31439;53.512;10.206;2023-05-07T13:28:06;16.00;99.90
45729;DHT22;31439;53.512;10.206;2023-05-07T13:30:32;16.20;99.90
45729;DHT22;31439;53.512;10.206;2023-05-07T13:32:57;16.20;99.90
45729;DHT22;31439;53.512;10.206;2023-05-07T13:35:23;16.30;99.90
45729;DHT22;31439;53.512;10.206;2023-05-07T13:37:49;16.50;99.90
45729;DHT22;31439;53.512;10.206;2023-05-07T13:40:15;16.70;99.90
45729;DHT22;31439;53.512;10.206;2023-05-07T13:42:40;16.80;99.90
45729;DHT22;31439;53.512;10.206;2023-05-07T13:45:07;16.90;99.90
45729;DHT22;31439;53.512;10.206;2023-05-07T13:47:33;16.70;99.90
45729;DHT22;31439;53.512;10.206;2023-05-07T13:49:59;16.80;99.90
45729;DHT22;31439;53.512;10.206;2023-05-07T13:52:25;16.90;99.90
45729;DHT22;31439;53.512;10.206;2023-05-07T13:54:51;16.80;99.90
45729;DHT22;31439;53.512;10.206;2023-05-07T13:57:18;16.80;99.90
45729;DHT22;31439;53.512;10.206;2023-05-07T13:59:43;16.90;99.90
45729;DHT22;31439;53.512;10.206;2023-05-07T14:02:09;17.10;99.90
45729;DHT22;31439;53.512;10.206;2023-05-07T14:04:35;17.10;99.90
45729;DHT22;31439;53.512;10.206;2023-05-07T14:07:01;17.10;99.90
45729;DHT22;31439;53.512;10.206;2023-05-07T14:09:26;17.20;99.90
45729;DHT22;31439;53.512;10.206;2023-05-07T14:11:52;17.10;99.90
45729;DHT22;31439;53.512;10.206;2023-05-07T14:14:18;17.00;99.90
45729;DHT22;31439;53.512;10.206;2023-05-07T14:16:44;17.10;99.90
45729;DHT22;31439;53.512;10.206;2023-05-07T14:19:11;17.00;99.90
45729;DHT22;31439;53.512;10.206;2023-05-07T14:21:37;17.00;99.90
45729;DHT22;31439;53.512;10.206;2023-05-07T14:24:03;17.00;99.90
45729;DHT22;31439;53.512;10.206;2023-05-07T14:26:28;17.00;99.90
45729;DHT22;31439;53.512;10.206;2023-05-07T14:28:55;17.00;99.90
45729;DHT22;31439;53.512;10.206;2023-05-07T14:31:22;17.00;99.90
45729;DHT22;31439;53.512;10.206;2023-05-07T14:33:48;17.00;99.90
45729;DHT22;31439;53.512;10.206;2023-05-07T14:36:19;17.00;99.90
45729;DHT22;31439;53.512;10.206;2023-05-07T14:38:49;17.20;99.90
45729;DHT22;31439;53.512;10.206;2023-05-07T14:41:15;17.40;99.90
45729;DHT22;31439;53.512;10.206;2023-05-07T14:43:41;17.50;99.90
45729;DHT22;31439;53.512;10.206;2023-05-07T14:46:07;17.40;99.90
45729;DHT22;31439;53.512;10.206;2023-05-07T14:48:32;17.40;99.90
45729;DHT22;31439;53.512;10.206;2023-05-07T14:50:58;17.50;99.90
45729;DHT22;31439;53.512;10.206;2023-05-07T14:53:24;17.40;99.90
45729;DHT22;31439;53.512;10.206;2023-05-07T14:55:49;17.20;99.90
45729;DHT22;31439;53.512;10.206;2023-05-07T14:58:15;17.20;99.90
45729;DHT22;31439;53.512;10.206;2023-05-07T15:00:40;17.30;99.90
45729;DHT22;31439;53.512;10.206;2023-05-07T15:03:08;17.30;99.90
45729;DHT22;31439;53.512;10.206;2023-05-07T15:05:34;17.30;99.90
45729;DHT22;31439;53.512;10.206;2023-05-07T15:08:00;17.30;99.90
45729;DHT22;31439;53.512;10.206;2023-05-07T15:10:26;17.40;99.90
45729;DHT22;31439;53.512;10.206;2023-05-07T15:12:52;17.20;99.90
45729;DHT22;31439;53.512;10.206;2023-05-07T15:15:17;17.20;99.90
45729;DHT22;31439;53.512;10.206;2023-05-07T15:17:43;17.20;99.90
45729;DHT22;31439;53.512;10.206;2023-05-07T15:20:09;17.30;99.90
45729;DHT22;31439;53.512;10.206;2023-05-07T15:22:35;17.30;99.90
45729;DHT22;31439;53.512;10.206;2023-05-07T15:25:03;17.30;99.90
45729;DHT22;31439;53.512;10.206;2023-05-07T15:27:30;17.20;99.90
45729;DHT22;31439;53.512;10.206;2023-05-07T15:29:56;17.20;99.90
45729;DHT22;31439;53.512;10.206;2023-05-07T15:32:22;17.30;99.90
45729;DHT22;31439;53.512;10.206;2023-05-07T15:34:48;17.30;99.90
45729;DHT22;31439;53.512;10.206;2023-05-07T15:37:13;17.30;99.90